EDT,Max TemperatureF,Mean TemperatureF,Min TemperatureF,Max Dew PointF,MeanDew PointF,Min DewpointF,Max Humidity, Mean Humidity, Min Humidity, Max Sea Level PressureIn, Mean Sea Level PressureIn, Min Sea Level PressureIn, Max VisibilityMiles, Mean VisibilityMiles, Min VisibilityMiles, Max Wind SpeedMPH, Mean Wind SpeedMPH, Max Gust SpeedMPH,PrecipitationIn, CloudCover, Events, WindDirDegrees
2012-10-1,68,52,39,48,41,37,100,84,43,29.98,29.94,29.88,10,5,0,6,3,,0.00,2,Fog,238
2012-10-2,69,60,50,51,48,44,87,70,47,29.96,29.91,29.86,10,10,10,10,4,,0.00,3,,52
2012-10-3,64,60,55,58,57,52,93,87,77,30.05,30.00,29.94,10,8,1,10,4,,0.02,8,Rain,179
2012-10-4,75,67,59,59,56,50,94,82,43,30.05,30.02,29.96,10,6,2,18,11,26,0.01,7,Rain,217
2012-10-5,61,54,46,51,39,33,76,61,40,30.06,29.99,29.94,10,10,10,20,13,26,0.00,3,,250
2012-10-6,52,45,37,37,33,29,82,63,48,30.14,30.01,29.92,10,10,10,22,12,26,0.02,4,,272
2012-10-7,50,42,36,37,34,31,93,73,50,30.15,30.13,30.09,10,10,10,10,5,,0.06,7,Rain,260
2012-10-8,55,44,33,32,29,27,85,60,34,30.19,30.14,30.08,10,10,10,21,8,26,0.01,1,,202
2012-10-9,63,52,42,37,33,28,58,47,35,30.07,29.93,29.75,10,10,10,22,13,32,0.00,0,,191
2012-10-10,48,45,34,43,34,21,89,71,40,30.15,29.91,29.77,10,10,6,24,16,33,0.07,6,Rain,271
2012-10-11,61,46,33,43,33,26,82,67,39,30.18,30.09,29.96,10,10,10,28,11,38,0.03,5,Rain,243
2012-10-12,50,41,32,33,27,19,88,60,31,30.48,30.39,30.21,10,10,10,10,7,,0.00,0,,9
2012-10-13,59,45,33,57,42,28,94,87,73,30.38,30.06,29.83,10,6,2,14,8,20,0.47,6,Rain,181
2012-10-14,70,61,53,63,59,48,100,90,68,29.84,29.65,29.38,10,5,2,23,9,34,0.67,8,Rain,197
2012-10-15,51,49,46,46,40,35,87,75,66,29.96,29.76,29.47,10,10,10,22,16,31,0.00,8,Rain,287
2012-10-16,59,47,37,41,37,34,93,68,46,29.99,29.89,29.73,10,10,10,13,5,,0.00,2,,180
2012-10-17,75,62,52,55,47,41,87,61,34,29.70,29.60,29.53,10,10,8,17,12,28,0.13,4,Rain,181
2012-10-18,60,53,46,55,46,35,89,74,44,29.66,29.48,29.35,10,9,2,18,13,32,0.34,6,Rain,183
2012-10-19,54,50,45,46,42,39,90,75,64,29.64,29.59,29.55,10,10,6,12,4,23,0.10,7,Rain,152
2012-10-20,57,52,44,45,44,42,93,85,63,29.89,29.69,29.59,10,9,6,12,5,,0.14,7,Rain,263
2012-10-21,61,49,37,47,40,37,100,81,48,30.09,30.04,29.92,10,5,0,12,6,20,0.00,1,Fog,218
2012-10-22,70,57,44,59,48,38,93,75,53,30.09,30.03,29.97,10,9,2,8,4,,0.18,3,Rain-Thunderstorm,151
2012-10-23,60,58,55,58,55,54,100,94,88,30.02,29.96,29.90,2,1,0,18,6,,0.25,8,Fog-Rain,41
2012-10-24,75,65,55,62,57,55,100,88,61,30.03,29.99,29.94,10,4,0,9,4,,0.01,4,Fog,85
2012-10-25,79,69,60,59,55,53,80,63,42,29.94,29.84,29.75,10,10,10,23,12,36,0.00,1,,184
2012-10-26,71,56,42,57,40,30,88,71,46,30.28,30.09,29.76,10,10,4,26,15,38,0.04,5,Rain,296
2012-10-27,52,42,33,36,32,28,82,68,48,30.28,30.26,30.22,10,10,10,15,9,,0.00,3,,11
2012-10-28,48,41,34,34,29,24,78,63,46,30.29,30.25,30.20,10,10,10,23,13,31,0.00,2,,7
2012-10-29,45,40,36,28,25,21,70,56,43,30.19,30.09,29.86,10,10,10,29,18,38,0.00,1,,352
2012-10-30,39,37,35,36,33,24,93,84,53,29.83,29.62,29.55,10,7,2,28,22,37,0.36,8,Rain-Snow,345
2012-10-31,44,40,35,37,34,33,93,85,70,29.68,29.61,29.56,10,7,2,17,14,23,0.03,8,Rain,316